sensor_id;sensor_type;location;lat;lon;timestamp;P1;durP1;ratioP1;P2;durP2;ratioP2
14847;SDS011;7516;43.570;1.448;2022-11-15T00:00:56;1.60;;;1.40;;
14847;SDS011;7516;43.570;1.448;2022-11-15T00:03:25;2.30;;;1.57;;
14847;SDS011;7516;43.570;1.448;2022-11-15T00:05:53;1.73;;;1.40;;
14847;SDS011;7516;43.570;1.448;2022-11-15T00:08:20;2.03;;;1.50;;
14847;SDS011;7516;43.570;1.448;2022-11-15T00:10:54;1.27;;;1.17;;
14847;SDS011;7516;43.570;1.448;2022-11-15T00:13:22;1.70;;;1.30;;
14847;SDS011;7516;43.570;1.448;2022-11-15T00:15:52;1.57;;;1.40;;
14847;SDS011;7516;43.570;1.448;2022-11-15T00:18:22;1.50;;;1.40;;
14847;SDS011;7516;43.570;1.448;2022-11-15T00:20:50;2.10;;;1.50;;
14847;SDS011;7516;43.570;1.448;2022-11-15T00:23:18;2.20;;;1.50;;
14847;SDS011;7516;43.570;1.448;2022-11-15T00:25:45;2.10;;;1.37;;
14847;SDS011;7516;43.570;1.448;2022-11-15T00:28:13;1.40;;;1.20;;
14847;SDS011;7516;43.570;1.448;2022-11-15T00:30:40;2.70;;;1.47;;
14847;SDS011;7516;43.570;1.448;2022-11-15T00:33:09;1.83;;;1.63;;
14847;SDS011;7516;43.570;1.448;2022-11-15T00:35:37;1.70;;;1.40;;
14847;SDS011;7516;43.570;1.448;2022-11-15T00:38:04;1.50;;;1.40;;
14847;SDS011;7516;43.570;1.448;2022-11-15T00:40:32;2.10;;;1.57;;
14847;SDS011;7516;43.570;1.448;2022-11-15T00:42:59;1.97;;;1.37;;
14847;SDS011;7516;43.570;1.448;2022-11-15T00:45:26;2.07;;;1.60;;
14847;SDS011;7516;43.570;1.448;2022-11-15T00:47:54;2.37;;;1.60;;
14847;SDS011;7516;43.570;1.448;2022-11-15T00:50:23;1.57;;;1.37;;
14847;SDS011;7516;43.570;1.448;2022-11-15T00:52:50;1.70;;;1.30;;
14847;SDS011;7516;43.570;1.448;2022-11-15T00:55:18;2.03;;;1.40;;
14847;SDS011;7516;43.570;1.448;2022-11-15T00:57:46;1.40;;;1.27;;
14847;SDS011;7516;43.570;1.448;2022-11-15T01:00:14;1.80;;;1.37;;
14847;SDS011;7516;43.570;1.448;2022-11-15T01:02:41;1.67;;;1.43;;
14847;SDS011;7516;43.570;1.448;2022-11-15T01:05:09;1.93;;;1.30;;
14847;SDS011;7516;43.570;1.448;2022-11-15T01:07:38;1.80;;;1.50;;
14847;SDS011;7516;43.570;1.448;2022-11-15T01:10:06;1.33;;;1.23;;
14847;SDS011;7516;43.570;1.448;2022-11-15T01:12:34;1.63;;;1.37;;
14847;SDS011;7516;43.570;1.448;2022-11-15T01:15:02;1.70;;;1.30;;
14847;SDS011;7516;43.570;1.448;2022-11-15T01:17:30;1.53;;;1.30;;
14847;SDS011;7516;43.570;1.448;2022-11-15T01:19:58;1.33;;;1.13;;
14847;SDS011;7516;43.570;1.448;2022-11-15T01:22:25;2.00;;;1.50;;
14847;SDS011;7516;43.570;1.448;2022-11-15T01:24:54;1.73;;;1.40;;
14847;SDS011;7516;43.570;1.448;2022-11-15T01:27:22;1.63;;;1.47;;
14847;SDS011;7516;43.570;1.448;2022-11-15T01:29:49;1.77;;;1.50;;
14847;SDS011;7516;43.570;1.448;2022-11-15T01:32:17;1.50;;;1.40;;
14847;SDS011;7516;43.570;1.448;2022-11-15T01:34:44;1.90;;;1.30;;
14847;SDS011;7516;43.570;1.448;2022-11-15T01:37:12;1.27;;;1.17;;
14847;SDS011;7516;43.570;1.448;2022-11-15T01:39:39;1.53;;;1.43;;
14847;SDS011;7516;43.570;1.448;2022-11-15T01:42:09;1.97;;;1.50;;
14847;SDS011;7516;43.570;1.448;2022-11-15T01:44:43;1.97;;;1.53;;
14847;SDS011;7516;43.570;1.448;2022-11-15T01:47:14;1.70;;;1.40;;
14847;SDS011;7516;43.570;1.448;2022-11-15T01:49:47;1.93;;;1.70;;
14847;SDS011;7516;43.570;1.448;2022-11-15T01:52:20;1.70;;;1.40;;
14847;SDS011;7516;43.570;1.448;2022-11-15T01:54:53;1.43;;;1.30;;
14847;SDS011;7516;43.570;1.448;2022-11-15T01:57:25;1.40;;;1.30;;
14847;SDS011;7516;43.570;1.448;2022-11-15T01:59:52;1.30;;;1.20;;
14847;SDS011;7516;43.570;1.448;2022-11-15T02:02:20;1.63;;;1.40;;
14847;SDS011;7516;43.570;1.448;2022-11-15T02:04:48;2.33;;;1.40;;
14847;SDS011;7516;43.570;1.448;2022-11-15T02:07:15;1.53;;;1.40;;
14847;SDS011;7516;43.570;1.448;2022-11-15T02:09:45;1.50;;;1.40;;
14847;SDS011;7516;43.570;1.448;2022-11-15T02:12:13;2.00;;;1.37;;
14847;SDS011;7516;43.570;1.448;2022-11-15T02:14:46;2.10;;;1.50;;
14847;SDS011;7516;43.570;1.448;2022-11-15T02:20:15;1.53;;;1.33;;
14847;SDS011;7516;43.570;1.448;2022-11-15T02:23:13;1.80;;;1.60;;
14847;SDS011;7516;43.570;1.448;2022-11-15T02:26:02;2.40;;;1.70;;
14847;SDS011;7516;43.570;1.448;2022-11-15T02:28:52;1.70;;;1.43;;
14847;SDS011;7516;43.570;1.448;2022-11-15T02:31:29;1.87;;;1.60;;
14847;SDS011;7516;43.570;1.448;2022-11-15T02:34:04;1.77;;;1.47;;
14847;SDS011;7516;43.570;1.448;2022-11-15T02:36:41;2.07;;;1.63;;
14847;SDS011;7516;43.570;1.448;2022-11-15T02:39:17;1.87;;;1.40;;
14847;SDS011;7516;43.570;1.448;2022-11-15T02:41:51;1.97;;;1.50;;
14847;SDS011;7516;43.570;1.448;2022-11-15T02:44:23;1.77;;;1.53;;
14847;SDS011;7516;43.570;1.448;2022-11-15T02:46:58;1.70;;;1.50;;
14847;SDS011;7516;43.570;1.448;2022-11-15T02:49:40;1.60;;;1.50;;
14847;SDS011;7516;43.570;1.448;2022-11-15T02:52:14;1.60;;;1.50;;
14847;SDS011;7516;43.570;1.448;2022-11-15T02:54:42;1.63;;;1.30;;
14847;SDS011;7516;43.570;1.448;2022-11-15T02:57:19;1.70;;;1.47;;
14847;SDS011;7516;43.570;1.448;2022-11-15T03:00:03;2.23;;;1.50;;
14847;SDS011;7516;43.570;1.448;2022-11-15T03:02:45;1.60;;;1.40;;
14847;SDS011;7516;43.570;1.448;2022-11-15T03:05:25;1.60;;;1.47;;
14847;SDS011;7516;43.570;1.448;2022-11-15T03:08:02;1.93;;;1.40;;
14847;SDS011;7516;43.570;1.448;2022-11-15T03:10:40;1.60;;;1.40;;
14847;SDS011;7516;43.570;1.448;2022-11-15T03:13:21;2.00;;;1.60;;
14847;SDS011;7516;43.570;1.448;2022-11-15T03:15:57;1.70;;;1.27;;
14847;SDS011;7516;43.570;1.448;2022-11-15T03:18:32;1.73;;;1.50;;
14847;SDS011;7516;43.570;1.448;2022-11-15T03:21:03;2.43;;;1.60;;
14847;SDS011;7516;43.570;1.448;2022-11-15T03:23:33;1.90;;;1.50;;
14847;SDS011;7516;43.570;1.448;2022-11-15T03:26:04;2.00;;;1.50;;
14847;SDS011;7516;43.570;1.448;2022-11-15T03:28:35;1.77;;;1.40;;
14847;SDS011;7516;43.570;1.448;2022-11-15T03:31:05;1.90;;;1.70;;
14847;SDS011;7516;43.570;1.448;2022-11-15T03:33:52;1.53;;;1.30;;
14847;SDS011;7516;43.570;1.448;2022-11-15T03:36:23;2.07;;;1.43;;
14847;SDS011;7516;43.570;1.448;2022-11-15T03:38:53;1.87;;;1.30;;
14847;SDS011;7516;43.570;1.448;2022-11-15T03:41:24;1.90;;;1.30;;
14847;SDS011;7516;43.570;1.448;2022-11-15T03:43:59;2.47;;;1.40;;
14847;SDS011;7516;43.570;1.448;2022-11-15T03:46:38;1.67;;;1.40;;
14847;SDS011;7516;43.570;1.448;2022-11-15T03:49:15;1.90;;;1.40;;
14847;SDS011;7516;43.570;1.448;2022-11-15T03:51:46;1.60;;;1.50;;
14847;SDS011;7516;43.570;1.448;2022-11-15T03:54:13;1.40;;;1.30;;
14847;SDS011;7516;43.570;1.448;2022-11-15T03:56:41;2.30;;;1.50;;
14847;SDS011;7516;43.570;1.448;2022-11-15T03:59:08;2.40;;;1.43;;
14847;SDS011;7516;43.570;1.448;2022-11-15T04:01:36;2.43;;;1.30;;
14847;SDS011;7516;43.570;1.448;2022-11-15T04:04:04;2.57;;;1.40;;
14847;SDS011;7516;43.570;1.448;2022-11-15T04:06:32;1.83;;;1.50;;
14847;SDS011;7516;43.570;1.448;2022-11-15T04:09:00;2.03;;;1.60;;
14847;SDS011;7516;43.570;1.448;2022-11-15T04:11:27;1.73;;;1.63;;
14847;SDS011;7516;43.570;1.448;2022-11-15T04:13:55;1.47;;;1.20;;
14847;SDS011;7516;43.570;1.448;2022-11-15T04:16:22;1.70;;;1.30;;
14847;SDS011;7516;43.570;1.448;2022-11-15T04:18:50;1.53;;;1.40;;
14847;SDS011;7516;43.570;1.448;2022-11-15T04:21:32;2.07;;;1.57;;
14847;SDS011;7516;43.570;1.448;2022-11-15T04:24:18;1.97;;;1.37;;
14847;SDS011;7516;43.570;1.448;2022-11-15T04:26:45;1.50;;;1.40;;
14847;SDS011;7516;43.570;1.448;2022-11-15T04:29:12;2.30;;;1.57;;
14847;SDS011;7516;43.570;1.448;2022-11-15T04:31:57;1.70;;;1.40;;
14847;SDS011;7516;43.570;1.448;2022-11-15T04:34:25;2.53;;;2.00;;
14847;SDS011;7516;43.570;1.448;2022-11-15T04:36:53;2.10;;;1.60;;
14847;SDS011;7516;43.570;1.448;2022-11-15T04:39:41;1.80;;;1.40;;
14847;SDS011;7516;43.570;1.448;2022-11-15T04:42:09;2.30;;;1.50;;
14847;SDS011;7516;43.570;1.448;2022-11-15T04:44:37;2.83;;;1.60;;
14847;SDS011;7516;43.570;1.448;2022-11-15T04:47:04;2.33;;;1.67;;
14847;SDS011;7516;43.570;1.448;2022-11-15T04:49:32;1.77;;;1.20;;
14847;SDS011;7516;43.570;1.448;2022-11-15T04:52:01;2.17;;;1.70;;
14847;SDS011;7516;43.570;1.448;2022-11-15T04:54:28;2.33;;;1.70;;
14847;SDS011;7516;43.570;1.448;2022-11-15T04:56:56;2.43;;;1.60;;
14847;SDS011;7516;43.570;1.448;2022-11-15T04:59:23;2.33;;;1.80;;
14847;SDS011;7516;43.570;1.448;2022-11-15T05:01:51;1.93;;;1.70;;
14847;SDS011;7516;43.570;1.448;2022-11-15T05:04:18;2.17;;;1.47;;
14847;SDS011;7516;43.570;1.448;2022-11-15T05:06:45;2.50;;;1.60;;
14847;SDS011;7516;43.570;1.448;2022-11-15T05:09:17;2.87;;;2.00;;
14847;SDS011;7516;43.570;1.448;2022-11-15T05:11:46;2.50;;;1.47;;
14847;SDS011;7516;43.570;1.448;2022-11-15T05:14:14;1.93;;;1.67;;
14847;SDS011;7516;43.570;1.448;2022-11-15T05:16:41;2.43;;;1.90;;
14847;SDS011;7516;43.570;1.448;2022-11-15T05:19:09;2.93;;;1.90;;
14847;SDS011;7516;43.570;1.448;2022-11-15T05:21:37;2.03;;;1.67;;
14847;SDS011;7516;43.570;1.448;2022-11-15T05:24:05;2.07;;;1.83;;
14847;SDS011;7516;43.570;1.448;2022-11-15T05:26:34;3.03;;;1.97;;
14847;SDS011;7516;43.570;1.448;2022-11-15T05:29:01;1.47;;;1.37;;
14847;SDS011;7516;43.570;1.448;2022-11-15T05:31:29;1.90;;;1.60;;
14847;SDS011;7516;43.570;1.448;2022-11-15T05:33:57;2.33;;;1.50;;
14847;SDS011;7516;43.570;1.448;2022-11-15T05:36:28;3.10;;;2.03;;
14847;SDS011;7516;43.570;1.448;2022-11-15T05:39:00;2.57;;;1.90;;
14847;SDS011;7516;43.570;1.448;2022-11-15T05:41:30;3.93;;;2.07;;
14847;SDS011;7516;43.570;1.448;2022-11-15T05:44:03;3.03;;;2.43;;
14847;SDS011;7516;43.570;1.448;2022-11-15T05:46:34;2.63;;;2.00;;
14847;SDS011;7516;43.570;1.448;2022-11-15T05:49:04;4.30;;;2.20;;
14847;SDS011;7516;43.570;1.448;2022-11-15T05:51:34;3.07;;;2.17;;
14847;SDS011;7516;43.570;1.448;2022-11-15T05:54:02;2.10;;;1.70;;
14847;SDS011;7516;43.570;1.448;2022-11-15T05:56:29;2.90;;;1.97;;
14847;SDS011;7516;43.570;1.448;2022-11-15T05:58:58;3.10;;;1.80;;
14847;SDS011;7516;43.570;1.448;2022-11-15T06:01:26;3.23;;;2.13;;
14847;SDS011;7516;43.570;1.448;2022-11-15T06:03:54;3.27;;;2.20;;
14847;SDS011;7516;43.570;1.448;2022-11-15T06:06:22;2.73;;;2.17;;
14847;SDS011;7516;43.570;1.448;2022-11-15T06:08:49;3.10;;;2.27;;
14847;SDS011;7516;43.570;1.448;2022-11-15T06:11:17;2.57;;;1.93;;
14847;SDS011;7516;43.570;1.448;2022-11-15T06:13:44;2.80;;;1.77;;
14847;SDS011;7516;43.570;1.448;2022-11-15T06:16:13;2.33;;;1.90;;
14847;SDS011;7516;43.570;1.448;2022-11-15T06:18:41;3.40;;;2.00;;
14847;SDS011;7516;43.570;1.448;2022-11-15T06:21:08;2.90;;;2.20;;
14847;SDS011;7516;43.570;1.448;2022-11-15T06:23:36;3.07;;;2.17;;
14847;SDS011;7516;43.570;1.448;2022-11-15T06:26:03;3.67;;;2.47;;
14847;SDS011;7516;43.570;1.448;2022-11-15T06:28:31;2.80;;;2.27;;
14847;SDS011;7516;43.570;1.448;2022-11-15T06:31:02;3.80;;;2.13;;
14847;SDS011;7516;43.570;1.448;2022-11-15T06:33:31;3.50;;;2.20;;
14847;SDS011;7516;43.570;1.448;2022-11-15T06:36:00;2.37;;;2.10;;
14847;SDS011;7516;43.570;1.448;2022-11-15T06:38:27;2.80;;;2.17;;
14847;SDS011;7516;43.570;1.448;2022-11-15T06:41:00;3.43;;;2.37;;
14847;SDS011;7516;43.570;1.448;2022-11-15T06:43:28;3.10;;;2.37;;
14847;SDS011;7516;43.570;1.448;2022-11-15T06:45:57;2.83;;;2.23;;
14847;SDS011;7516;43.570;1.448;2022-11-15T06:48:25;2.87;;;2.43;;
14847;SDS011;7516;43.570;1.448;2022-11-15T06:50:54;4.83;;;2.70;;
14847;SDS011;7516;43.570;1.448;2022-11-15T06:53:23;2.60;;;2.20;;
14847;SDS011;7516;43.570;1.448;2022-11-15T06:55:51;3.20;;;2.30;;
14847;SDS011;7516;43.570;1.448;2022-11-15T06:58:20;3.80;;;2.37;;
14847;SDS011;7516;43.570;1.448;2022-11-15T07:00:47;3.03;;;2.30;;
14847;SDS011;7516;43.570;1.448;2022-11-15T07:03:15;3.00;;;2.50;;
14847;SDS011;7516;43.570;1.448;2022-11-15T07:05:49;2.77;;;2.30;;
14847;SDS011;7516;43.570;1.448;2022-11-15T07:08:19;3.73;;;2.50;;
14847;SDS011;7516;43.570;1.448;2022-11-15T07:10:47;4.90;;;2.50;;
14847;SDS011;7516;43.570;1.448;2022-11-15T07:13:15;3.77;;;2.40;;
14847;SDS011;7516;43.570;1.448;2022-11-15T07:15:43;4.73;;;2.13;;
14847;SDS011;7516;43.570;1.448;2022-11-15T07:18:10;4.83;;;2.30;;
14847;SDS011;7516;43.570;1.448;2022-11-15T07:20:38;3.77;;;2.53;;
14847;SDS011;7516;43.570;1.448;2022-11-15T07:23:05;3.67;;;2.83;;
14847;SDS011;7516;43.570;1.448;2022-11-15T07:25:34;4.63;;;2.33;;
14847;SDS011;7516;43.570;1.448;2022-11-15T07:28:02;5.17;;;2.23;;
14847;SDS011;7516;43.570;1.448;2022-11-15T07:30:30;3.60;;;2.70;;
14847;SDS011;7516;43.570;1.448;2022-11-15T07:32:57;3.07;;;2.27;;
14847;SDS011;7516;43.570;1.448;2022-11-15T07:35:26;5.30;;;2.70;;
14847;SDS011;7516;43.570;1.448;2022-11-15T07:37:55;3.30;;;2.57;;
14847;SDS011;7516;43.570;1.448;2022-11-15T07:40:23;5.13;;;2.67;;
14847;SDS011;7516;43.570;1.448;2022-11-15T07:42:52;4.20;;;2.40;;
14847;SDS011;7516;43.570;1.448;2022-11-15T07:45:26;5.13;;;3.20;;
14847;SDS011;7516;43.570;1.448;2022-11-15T07:47:53;5.40;;;2.67;;
14847;SDS011;7516;43.570;1.448;2022-11-15T07:50:22;5.70;;;3.10;;
14847;SDS011;7516;43.570;1.448;2022-11-15T07:52:53;4.00;;;2.67;;
14847;SDS011;7516;43.570;1.448;2022-11-15T07:55:21;2.47;;;2.00;;
14847;SDS011;7516;43.570;1.448;2022-11-15T07:57:49;4.17;;;3.03;;
14847;SDS011;7516;43.570;1.448;2022-11-15T08:00:18;3.30;;;2.53;;
14847;SDS011;7516;43.570;1.448;2022-11-15T08:02:45;5.03;;;2.97;;
14847;SDS011;7516;43.570;1.448;2022-11-15T08:05:13;4.47;;;2.43;;
14847;SDS011;7516;43.570;1.448;2022-11-15T08:07:41;3.70;;;2.40;;
14847;SDS011;7516;43.570;1.448;2022-11-15T08:10:08;4.17;;;2.37;;
14847;SDS011;7516;43.570;1.448;2022-11-15T08:12:37;4.17;;;2.37;;
14847;SDS011;7516;43.570;1.448;2022-11-15T08:15:05;3.20;;;2.20;;
14847;SDS011;7516;43.570;1.448;2022-11-15T08:17:34;3.90;;;2.90;;
14847;SDS011;7516;43.570;1.448;2022-11-15T08:20:01;5.90;;;2.63;;
14847;SDS011;7516;43.570;1.448;2022-11-15T08:22:29;6.53;;;2.80;;
14847;SDS011;7516;43.570;1.448;2022-11-15T08:24:57;2.03;;;1.37;;
14847;SDS011;7516;43.570;1.448;2022-11-15T08:27:24;6.03;;;2.63;;
14847;SDS011;7516;43.570;1.448;2022-11-15T08:29:52;3.90;;;2.77;;
14847;SDS011;7516;43.570;1.448;2022-11-15T08:32:20;5.50;;;3.23;;
14847;SDS011;7516;43.570;1.448;2022-11-15T08:34:49;3.67;;;2.87;;
14847;SDS011;7516;43.570;1.448;2022-11-15T08:37:17;3.87;;;2.60;;
14847;SDS011;7516;43.570;1.448;2022-11-15T08:39:44;7.17;;;2.90;;
14847;SDS011;7516;43.570;1.448;2022-11-15T08:42:12;4.20;;;2.87;;
14847;SDS011;7516;43.570;1.448;2022-11-15T08:44:40;4.73;;;3.00;;
14847;SDS011;7516;43.570;1.448;2022-11-15T08:47:07;4.25;;;2.53;;
14847;SDS011;7516;43.570;1.448;2022-11-15T08:49:37;8.05;;;4.18;;
14847;SDS011;7516;43.570;1.448;2022-11-15T08:52:05;11.23;;;4.43;;
14847;SDS011;7516;43.570;1.448;2022-11-15T08:54:33;11.43;;;6.33;;
14847;SDS011;7516;43.570;1.448;2022-11-15T08:57:00;9.67;;;4.50;;
14847;SDS011;7516;43.570;1.448;2022-11-15T08:59:28;12.60;;;6.00;;
14847;SDS011;7516;43.570;1.448;2022-11-15T09:01:55;12.83;;;5.63;;
14847;SDS011;7516;43.570;1.448;2022-11-15T09:04:23;10.90;;;4.47;;
14847;SDS011;7516;43.570;1.448;2022-11-15T09:06:50;11.90;;;5.23;;
14847;SDS011;7516;43.570;1.448;2022-11-15T09:09:19;13.63;;;5.13;;
14847;SDS011;7516;43.570;1.448;2022-11-15T09:11:47;11.47;;;5.00;;
14847;SDS011;7516;43.570;1.448;2022-11-15T09:14:15;8.17;;;3.40;;
14847;SDS011;7516;43.570;1.448;2022-11-15T09:16:43;11.67;;;4.67;;
14847;SDS011;7516;43.570;1.448;2022-11-15T09:19:11;9.70;;;4.63;;
14847;SDS011;7516;43.570;1.448;2022-11-15T09:21:40;8.47;;;4.57;;
14847;SDS011;7516;43.570;1.448;2022-11-15T09:24:08;10.80;;;4.00;;
14847;SDS011;7516;43.570;1.448;2022-11-15T09:26:37;6.43;;;4.50;;
14847;SDS011;7516;43.570;1.448;2022-11-15T09:29:05;8.17;;;3.93;;
14847;SDS011;7516;43.570;1.448;2022-11-15T09:31:32;7.70;;;4.03;;
14847;SDS011;7516;43.570;1.448;2022-11-15T09:34:00;6.17;;;4.07;;
14847;SDS011;7516;43.570;1.448;2022-11-15T09:36:27;8.17;;;4.07;;
14847;SDS011;7516;43.570;1.448;2022-11-15T09:38:55;6.20;;;4.10;;
14847;SDS011;7516;43.570;1.448;2022-11-15T09:41:40;2.83;;;2.37;;
14847;SDS011;7516;43.570;1.448;2022-11-15T09:44:24;7.30;;;3.77;;
14847;SDS011;7516;43.570;1.448;2022-11-15T09:47:07;6.90;;;3.70;;
14847;SDS011;7516;43.570;1.448;2022-11-15T09:49:54;5.67;;;3.90;;
14847;SDS011;7516;43.570;1.448;2022-11-15T09:52:24;4.00;;;2.67;;
14847;SDS011;7516;43.570;1.448;2022-11-15T09:54:52;9.13;;;4.10;;
14847;SDS011;7516;43.570;1.448;2022-11-15T09:57:30;6.67;;;3.60;;
14847;SDS011;7516;43.570;1.448;2022-11-15T10:00:09;5.40;;;3.30;;
14847;SDS011;7516;43.570;1.448;2022-11-15T10:02:52;8.03;;;4.13;;
14847;SDS011;7516;43.570;1.448;2022-11-15T10:05:30;7.47;;;3.97;;
14847;SDS011;7516;43.570;1.448;2022-11-15T10:08:05;6.70;;;3.37;;
14847;SDS011;7516;43.570;1.448;2022-11-15T10:10:44;5.43;;;3.80;;
14847;SDS011;7516;43.570;1.448;2022-11-15T10:13:16;6.43;;;3.87;;
14847;SDS011;7516;43.570;1.448;2022-11-15T10:15:48;4.97;;;3.60;;
14847;SDS011;7516;43.570;1.448;2022-11-15T10:18:17;5.30;;;3.20;;
14847;SDS011;7516;43.570;1.448;2022-11-15T10:20:54;6.57;;;3.43;;
14847;SDS011;7516;43.570;1.448;2022-11-15T10:23:25;4.80;;;3.87;;
14847;SDS011;7516;43.570;1.448;2022-11-15T10:25:55;6.27;;;3.80;;
14847;SDS011;7516;43.570;1.448;2022-11-15T10:28:26;5.47;;;2.50;;
14847;SDS011;7516;43.570;1.448;2022-11-15T10:30:56;5.43;;;3.50;;
14847;SDS011;7516;43.570;1.448;2022-11-15T10:33:26;4.83;;;3.43;;
14847;SDS011;7516;43.570;1.448;2022-11-15T10:36:14;6.23;;;3.30;;
14847;SDS011;7516;43.570;1.448;2022-11-15T10:38:51;4.00;;;3.20;;
14847;SDS011;7516;43.570;1.448;2022-11-15T10:41:21;5.00;;;2.97;;
14847;SDS011;7516;43.570;1.448;2022-11-15T10:44:17;4.80;;;3.53;;
14847;SDS011;7516;43.570;1.448;2022-11-15T10:47:06;5.50;;;3.43;;
14847;SDS011;7516;43.570;1.448;2022-11-15T10:49:53;6.23;;;3.63;;
14847;SDS011;7516;43.570;1.448;2022-11-15T10:52:22;6.17;;;3.87;;
14847;SDS011;7516;43.570;1.448;2022-11-15T10:54:51;8.80;;;3.70;;
14847;SDS011;7516;43.570;1.448;2022-11-15T10:57:22;6.87;;;3.83;;
14847;SDS011;7516;43.570;1.448;2022-11-15T10:59:53;5.10;;;3.83;;
14847;SDS011;7516;43.570;1.448;2022-11-15T11:02:29;6.97;;;4.10;;
14847;SDS011;7516;43.570;1.448;2022-11-15T11:04:59;7.03;;;3.70;;
14847;SDS011;7516;43.570;1.448;2022-11-15T11:07:29;7.30;;;3.63;;
14847;SDS011;7516;43.570;1.448;2022-11-15T11:10:01;5.13;;;3.70;;
14847;SDS011;7516;43.570;1.448;2022-11-15T11:12:31;6.93;;;3.67;;
14847;SDS011;7516;43.570;1.448;2022-11-15T11:15:05;6.33;;;3.80;;
14847;SDS011;7516;43.570;1.448;2022-11-15T11:17:43;6.90;;;3.70;;
14847;SDS011;7516;43.570;1.448;2022-11-15T11:20:20;6.20;;;3.77;;
14847;SDS011;7516;43.570;1.448;2022-11-15T11:23:03;4.63;;;3.67;;
14847;SDS011;7516;43.570;1.448;2022-11-15T11:25:43;7.30;;;3.80;;
14847;SDS011;7516;43.570;1.448;2022-11-15T11:28:21;5.47;;;3.60;;
14847;SDS011;7516;43.570;1.448;2022-11-15T11:31:03;4.90;;;3.80;;
14847;SDS011;7516;43.570;1.448;2022-11-15T11:33:42;4.07;;;3.40;;
14847;SDS011;7516;43.570;1.448;2022-11-15T11:36:18;4.67;;;3.53;;
14847;SDS011;7516;43.570;1.448;2022-11-15T11:38:55;4.27;;;3.37;;
14847;SDS011;7516;43.570;1.448;2022-11-15T11:41:39;6.17;;;4.13;;
14847;SDS011;7516;43.570;1.448;2022-11-15T11:44:24;4.90;;;3.50;;
14847;SDS011;7516;43.570;1.448;2022-11-15T11:47:17;4.73;;;3.40;;
14847;SDS011;7516;43.570;1.448;2022-11-15T11:49:50;6.83;;;3.90;;
14847;SDS011;7516;43.570;1.448;2022-11-15T11:52:22;5.03;;;3.53;;
14847;SDS011;7516;43.570;1.448;2022-11-15T11:54:55;4.30;;;3.30;;
14847;SDS011;7516;43.570;1.448;2022-11-15T11:57:38;3.50;;;3.20;;
14847;SDS011;7516;43.570;1.448;2022-11-15T12:00:14;5.03;;;3.50;;
14847;SDS011;7516;43.570;1.448;2022-11-15T12:02:47;4.73;;;3.27;;
14847;SDS011;7516;43.570;1.448;2022-11-15T12:05:22;3.97;;;3.30;;
14847;SDS011;7516;43.570;1.448;2022-11-15T12:07:58;6.73;;;3.40;;
14847;SDS011;7516;43.570;1.448;2022-11-15T12:10:35;3.67;;;3.27;;
14847;SDS011;7516;43.570;1.448;2022-11-15T12:13:07;4.03;;;3.30;;
14847;SDS011;7516;43.570;1.448;2022-11-15T12:15:40;4.37;;;3.20;;
14847;SDS011;7516;43.570;1.448;2022-11-15T12:18:14;4.50;;;3.30;;
14847;SDS011;7516;43.570;1.448;2022-11-15T12:20:47;4.57;;;3.23;;
14847;SDS011;7516;43.570;1.448;2022-11-15T12:23:21;4.67;;;3.60;;
14847;SDS011;7516;43.570;1.448;2022-11-15T12:25:54;6.83;;;3.47;;
14847;SDS011;7516;43.570;1.448;2022-11-15T12:28:28;5.87;;;3.53;;
14847;SDS011;7516;43.570;1.448;2022-11-15T12:31:04;3.97;;;3.57;;
14847;SDS011;7516;43.570;1.448;2022-11-15T12:33:41;6.47;;;3.17;;
14847;SDS011;7516;43.570;1.448;2022-11-15T12:36:10;3.87;;;3.33;;
14847;SDS011;7516;43.570;1.448;2022-11-15T12:38:56;6.87;;;3.70;;
14847;SDS011;7516;43.570;1.448;2022-11-15T12:41:25;4.07;;;3.30;;
14847;SDS011;7516;43.570;1.448;2022-11-15T12:43:54;4.67;;;3.47;;
14847;SDS011;7516;43.570;1.448;2022-11-15T12:49:44;5.83;;;3.50;;
14847;SDS011;7516;43.570;1.448;2022-11-15T12:52:13;4.23;;;3.30;;
14847;SDS011;7516;43.570;1.448;2022-11-15T12:54:51;5.60;;;3.50;;
14847;SDS011;7516;43.570;1.448;2022-11-15T12:57:40;5.53;;;3.30;;
14847;SDS011;7516;43.570;1.448;2022-11-15T13:06:07;6.43;;;3.30;;
14847;SDS011;7516;43.570;1.448;2022-11-15T13:08:37;4.77;;;3.20;;
14847;SDS011;7516;43.570;1.448;2022-11-15T13:20:22;5.87;;;3.37;;
14847;SDS011;7516;43.570;1.448;2022-11-15T13:22:59;3.87;;;2.93;;
14847;SDS011;7516;43.570;1.448;2022-11-15T13:25:50;6.73;;;3.30;;
14847;SDS011;7516;43.570;1.448;2022-11-15T13:28:29;4.07;;;3.10;;
14847;SDS011;7516;43.570;1.448;2022-11-15T13:31:00;3.37;;;3.07;;
14847;SDS011;7516;43.570;1.448;2022-11-15T13:33:30;4.67;;;3.37;;
14847;SDS011;7516;43.570;1.448;2022-11-15T13:36:01;5.17;;;3.17;;
14847;SDS011;7516;43.570;1.448;2022-11-15T13:38:34;5.23;;;3.30;;
14847;SDS011;7516;43.570;1.448;2022-11-15T13:41:11;5.20;;;3.40;;
14847;SDS011;7516;43.570;1.448;2022-11-15T13:43:45;4.03;;;3.20;;
14847;SDS011;7516;43.570;1.448;2022-11-15T13:46:15;4.97;;;3.37;;
14847;SDS011;7516;43.570;1.448;2022-11-15T13:48:44;3.70;;;3.03;;
14847;SDS011;7516;43.570;1.448;2022-11-15T13:51:15;3.60;;;3.30;;
14847;SDS011;7516;43.570;1.448;2022-11-15T13:53:52;4.60;;;3.47;;
14847;SDS011;7516;43.570;1.448;2022-11-15T13:56:23;4.40;;;3.30;;
14847;SDS011;7516;43.570;1.448;2022-11-15T13:58:52;3.73;;;3.07;;
14847;SDS011;7516;43.570;1.448;2022-11-15T14:01:20;5.00;;;3.30;;
14847;SDS011;7516;43.570;1.448;2022-11-15T14:03:51;3.90;;;3.50;;
14847;SDS011;7516;43.570;1.448;2022-11-15T14:06:22;4.10;;;3.47;;
14847;SDS011;7516;43.570;1.448;2022-11-15T14:09:01;3.67;;;3.10;;
14847;SDS011;7516;43.570;1.448;2022-11-15T14:11:50;3.77;;;3.27;;
14847;SDS011;7516;43.570;1.448;2022-11-15T14:14:20;4.40;;;3.30;;
14847;SDS011;7516;43.570;1.448;2022-11-15T14:16:49;3.40;;;3.10;;
14847;SDS011;7516;43.570;1.448;2022-11-15T14:19:37;4.40;;;3.43;;
14847;SDS011;7516;43.570;1.448;2022-11-15T14:25:14;4.30;;;3.63;;
14847;SDS011;7516;43.570;1.448;2022-11-15T14:27:44;4.60;;;3.50;;
14847;SDS011;7516;43.570;1.448;2022-11-15T14:30:26;4.93;;;3.47;;
14847;SDS011;7516;43.570;1.448;2022-11-15T14:32:54;6.80;;;3.63;;
14847;SDS011;7516;43.570;1.448;2022-11-15T14:35:22;4.80;;;3.50;;
14847;SDS011;7516;43.570;1.448;2022-11-15T14:37:50;5.00;;;3.90;;
14847;SDS011;7516;43.570;1.448;2022-11-15T14:40:19;5.20;;;3.90;;
14847;SDS011;7516;43.570;1.448;2022-11-15T14:42:48;4.60;;;3.60;;
14847;SDS011;7516;43.570;1.448;2022-11-15T14:45:16;4.93;;;3.50;;
14847;SDS011;7516;43.570;1.448;2022-11-15T14:47:45;5.37;;;3.27;;
14847;SDS011;7516;43.570;1.448;2022-11-15T14:50:14;5.37;;;3.77;;
14847;SDS011;7516;43.570;1.448;2022-11-15T14:52:43;5.23;;;3.53;;
14847;SDS011;7516;43.570;1.448;2022-11-15T14:55:15;4.03;;;3.27;;
14847;SDS011;7516;43.570;1.448;2022-11-15T14:57:47;3.53;;;3.00;;
14847;SDS011;7516;43.570;1.448;2022-11-15T15:00:15;3.57;;;3.23;;
14847;SDS011;7516;43.570;1.448;2022-11-15T15:02:44;3.53;;;3.23;;
14847;SDS011;7516;43.570;1.448;2022-11-15T15:05:13;3.27;;;2.97;;
14847;SDS011;7516;43.570;1.448;2022-11-15T15:07:43;4.67;;;2.93;;
14847;SDS011;7516;43.570;1.448;2022-11-15T15:10:11;4.13;;;3.10;;
14847;SDS011;7516;43.570;1.448;2022-11-15T15:12:41;2.90;;;2.70;;
14847;SDS011;7516;43.570;1.448;2022-11-15T15:15:12;3.00;;;2.70;;
14847;SDS011;7516;43.570;1.448;2022-11-15T15:17:41;3.60;;;3.13;;
14847;SDS011;7516;43.570;1.448;2022-11-15T15:20:09;4.67;;;3.20;;
14847;SDS011;7516;43.570;1.448;2022-11-15T15:22:37;3.63;;;2.87;;
14847;SDS011;7516;43.570;1.448;2022-11-15T15:25:18;3.97;;;3.27;;
14847;SDS011;7516;43.570;1.448;2022-11-15T15:27:54;3.10;;;2.80;;
14847;SDS011;7516;43.570;1.448;2022-11-15T15:30:23;3.10;;;2.80;;
14847;SDS011;7516;43.570;1.448;2022-11-15T15:32:52;3.70;;;3.17;;
14847;SDS011;7516;43.570;1.448;2022-11-15T15:35:20;3.87;;;3.30;;
14847;SDS011;7516;43.570;1.448;2022-11-15T15:37:48;4.30;;;3.00;;
14847;SDS011;7516;43.570;1.448;2022-11-15T15:40:16;3.40;;;2.90;;
14847;SDS011;7516;43.570;1.448;2022-11-15T15:42:46;3.40;;;2.90;;
14847;SDS011;7516;43.570;1.448;2022-11-15T15:45:16;3.13;;;2.83;;
14847;SDS011;7516;43.570;1.448;2022-11-15T15:47:44;3.23;;;2.80;;
14847;SDS011;7516;43.570;1.448;2022-11-15T15:50:16;3.47;;;3.10;;